sensor_id;sensor_type;location;lat;lon;timestamp;pressure;altitude;pressure_sealevel;temperature;humidity
54262;BME280;40174;52.364;6.452;2022-10-31T00:04:05;101824.38;;;12.60;100.00
54262;BME280;40174;52.364;6.452;2022-10-31T00:06:32;101820.75;;;12.61;100.00
54262;BME280;40174;52.364;6.452;2022-10-31T00:09:01;101821.00;;;12.58;100.00
54262;BME280;40174;52.364;6.452;2022-10-31T00:11:29;101811.31;;;12.57;100.00
54262;BME280;40174;52.364;6.452;2022-10-31T00:13:56;101817.69;;;12.55;100.00
54262;BME280;40174;52.364;6.452;2022-10-31T00:16:25;101809.75;;;12.55;100.00
54262;BME280;40174;52.364;6.452;2022-10-31T00:18:53;101810.38;;;12.58;100.00
54262;BME280;40174;52.364;6.452;2022-10-31T00:21:20;101809.75;;;12.55;100.00
54262;BME280;40174;52.364;6.452;2022-10-31T00:23:47;101803.84;;;12.51;100.00
54262;BME280;40174;52.364;6.452;2022-10-31T00:26:14;101812.63;;;12.52;100.00
54262;BME280;40174;52.364;6.452;2022-10-31T00:28:42;101810.94;;;12.51;100.00
54262;BME280;40174;52.364;6.452;2022-10-31T00:31:11;101811.16;;;12.47;100.00
54262;BME280;40174;52.364;6.452;2022-10-31T00:33:38;101811.50;;;12.43;100.00
54262;BME280;40174;52.364;6.452;2022-10-31T00:36:07;101808.75;;;12.44;100.00
54262;BME280;40174;52.364;6.452;2022-10-31T00:38:34;101816.56;;;12.46;100.00
54262;BME280;40174;52.364;6.452;2022-10-31T00:41:01;101813.91;;;12.46;100.00
54262;BME280;40174;52.364;6.452;2022-10-31T00:43:27;101810.31;;;12.47;100.00
54262;BME280;40174;52.364;6.452;2022-10-31T00:45:55;101804.16;;;12.46;100.00
54262;BME280;40174;52.364;6.452;2022-10-31T00:48:23;101803.31;;;12.46;100.00
54262;BME280;40174;52.364;6.452;2022-10-31T00:50:51;101807.78;;;12.45;100.00
54262;BME280;40174;52.364;6.452;2022-10-31T00:53:19;101812.44;;;12.42;100.00
54262;BME280;40174;52.364;6.452;2022-10-31T00:55:46;101822.19;;;12.41;100.00
54262;BME280;40174;52.364;6.452;2022-10-31T00:58:12;101815.31;;;12.39;100.00
54262;BME280;40174;52.364;6.452;2022-10-31T01:00:39;101823.59;;;12.34;100.00
54262;BME280;40174;52.364;6.452;2022-10-31T01:03:08;101825.53;;;12.32;100.00
54262;BME280;40174;52.364;6.452;2022-10-31T01:05:38;101833.38;;;12.34;100.00
54262;BME280;40174;52.364;6.452;2022-10-31T01:08:05;101827.44;;;12.30;100.00
54262;BME280;40174;52.364;6.452;2022-10-31T01:10:31;101827.44;;;12.30;100.00
54262;BME280;40174;52.364;6.452;2022-10-31T01:12:58;101822.22;;;12.28;100.00
54262;BME280;40174;52.364;6.452;2022-10-31T01:15:24;101830.19;;;12.28;100.00
54262;BME280;40174;52.364;6.452;2022-10-31T01:17:51;101827.66;;;12.27;100.00
54262;BME280;40174;52.364;6.452;2022-10-31T01:20:19;101831.25;;;12.26;100.00
54262;BME280;40174;52.364;6.452;2022-10-31T01:22:46;101836.88;;;12.21;100.00
54262;BME280;40174;52.364;6.452;2022-10-31T01:25:12;101842.31;;;12.20;100.00
54262;BME280;40174;52.364;6.452;2022-10-31T01:27:39;101837.00;;;12.20;100.00
54262;BME280;40174;52.364;6.452;2022-10-31T01:30:07;101833.63;;;12.18;100.00
54262;BME280;40174;52.364;6.452;2022-10-31T01:32:34;101834.69;;;12.15;100.00
54262;BME280;40174;52.364;6.452;2022-10-31T01:35:00;101844.75;;;12.10;100.00
54262;BME280;40174;52.364;6.452;2022-10-31T01:37:30;101838.84;;;12.06;100.00
54262;BME280;40174;52.364;6.452;2022-10-31T01:39:57;101842.31;;;12.07;100.00
54262;BME280;40174;52.364;6.452;2022-10-31T01:42:23;101835.63;;;12.01;100.00
54262;BME280;40174;52.364;6.452;2022-10-31T01:44:54;101827.19;;;11.96;100.00
54262;BME280;40174;52.364;6.452;2022-10-31T01:47:31;101825.91;;;11.89;100.00
54262;BME280;40174;52.364;6.452;2022-10-31T01:50:01;101826.41;;;11.81;100.00
54262;BME280;40174;52.364;6.452;2022-10-31T01:52:33;101829.28;;;11.78;100.00
54262;BME280;40174;52.364;6.452;2022-10-31T01:55:05;101834.91;;;11.74;100.00
54262;BME280;40174;52.364;6.452;2022-10-31T01:57:34;101831.72;;;11.69;100.00
54262;BME280;40174;52.364;6.452;2022-10-31T02:00:09;101833.81;;;11.63;100.00
54262;BME280;40174;52.364;6.452;2022-10-31T02:02:40;101831.50;;;11.59;100.00
54262;BME280;40174;52.364;6.452;2022-10-31T02:05:09;101836.91;;;11.57;100.00
54262;BME280;40174;52.364;6.452;2022-10-31T02:07:42;101829.91;;;11.56;100.00
54262;BME280;40174;52.364;6.452;2022-10-31T02:10:09;101823.03;;;11.54;100.00
54262;BME280;40174;52.364;6.452;2022-10-31T02:12:37;101822.94;;;11.55;100.00
54262;BME280;40174;52.364;6.452;2022-10-31T03:01:53;101831.97;;;10.73;100.00
54262;BME280;40174;52.364;6.452;2022-10-31T03:04:40;101825.56;;;10.63;100.00
54262;BME280;40174;52.364;6.452;2022-10-31T03:07:21;101827.66;;;10.57;100.00
54262;BME280;40174;52.364;6.452;2022-10-31T03:09:55;101820.13;;;10.51;100.00
54262;BME280;40174;52.364;6.452;2022-10-31T03:12:28;101817.97;;;10.44;100.00
54262;BME280;40174;52.364;6.452;2022-10-31T03:15:03;101817.97;;;10.44;100.00
54262;BME280;40174;52.364;6.452;2022-10-31T03:17:45;101819.03;;;10.41;100.00
54262;BME280;40174;52.364;6.452;2022-10-31T03:20:15;101822.81;;;10.37;100.00
54262;BME280;40174;52.364;6.452;2022-10-31T03:22:45;101825.53;;;10.35;100.00
54262;BME280;40174;52.364;6.452;2022-10-31T03:25:13;101822.03;;;10.35;100.00
54262;BME280;40174;52.364;6.452;2022-10-31T03:27:42;101826.78;;;10.30;100.00
54262;BME280;40174;52.364;6.452;2022-10-31T03:30:11;101821.00;;;10.23;100.00
54262;BME280;40174;52.364;6.452;2022-10-31T03:32:59;101822.22;;;10.17;100.00
54262;BME280;40174;52.364;6.452;2022-10-31T03:35:30;101824.41;;;10.11;100.00
54262;BME280;40174;52.364;6.452;2022-10-31T03:38:02;101823.84;;;10.06;100.00
54262;BME280;40174;52.364;6.452;2022-10-31T03:40:34;101822.44;;;10.00;100.00
54262;BME280;40174;52.364;6.452;2022-10-31T03:43:06;101822.28;;;9.89;100.00
54262;BME280;40174;52.364;6.452;2022-10-31T03:45:39;101822.63;;;9.83;100.00
54262;BME280;40174;52.364;6.452;2022-10-31T03:48:09;101823.97;;;9.75;100.00
54262;BME280;40174;52.364;6.452;2022-10-31T03:50:41;101820.56;;;9.73;100.00
54262;BME280;40174;52.364;6.452;2022-10-31T03:53:13;101820.16;;;9.65;100.00
54262;BME280;40174;52.364;6.452;2022-10-31T03:55:44;101816.84;;;9.62;100.00
54262;BME280;40174;52.364;6.452;2022-10-31T03:58:20;101815.66;;;9.53;100.00
54262;BME280;40174;52.364;6.452;2022-10-31T04:00:49;101818.38;;;9.51;100.00
54262;BME280;40174;52.364;6.452;2022-10-31T04:03:21;101817.88;;;9.45;100.00
54262;BME280;40174;52.364;6.452;2022-10-31T04:05:53;101828.53;;;9.43;100.00
54262;BME280;40174;52.364;6.452;2022-10-31T04:08:23;101825.59;;;9.33;100.00
54262;BME280;40174;52.364;6.452;2022-10-31T04:10:54;101829.53;;;9.26;100.00
54262;BME280;40174;52.364;6.452;2022-10-31T04:13:26;101827.94;;;9.24;100.00
54262;BME280;40174;52.364;6.452;2022-10-31T04:16:02;101822.06;;;9.19;100.00
54262;BME280;40174;52.364;6.452;2022-10-31T04:18:32;101816.28;;;9.12;100.00
54262;BME280;40174;52.364;6.452;2022-10-31T04:21:01;101826.28;;;9.07;100.00
54262;BME280;40174;52.364;6.452;2022-10-31T04:23:28;101828.97;;;9.05;100.00
54262;BME280;40174;52.364;6.452;2022-10-31T04:25:55;101827.66;;;8.98;100.00
54262;BME280;40174;52.364;6.452;2022-10-31T04:28:22;101825.19;;;8.95;100.00
54262;BME280;40174;52.364;6.452;2022-10-31T04:30:48;101823.59;;;8.92;100.00
54262;BME280;40174;52.364;6.452;2022-10-31T04:33:16;101821.78;;;8.93;100.00
54262;BME280;40174;52.364;6.452;2022-10-31T04:35:46;101822.06;;;8.88;100.00
54262;BME280;40174;52.364;6.452;2022-10-31T04:38:13;101830.91;;;8.87;100.00
54262;BME280;40174;52.364;6.452;2022-10-31T04:40:40;101826.56;;;8.86;100.00
54262;BME280;40174;52.364;6.452;2022-10-31T04:43:27;101829.47;;;8.82;100.00
54262;BME280;40174;52.364;6.452;2022-10-31T04:45:53;101828.13;;;8.74;100.00
54262;BME280;40174;52.364;6.452;2022-10-31T04:48:20;101826.59;;;8.70;100.00
54262;BME280;40174;52.364;6.452;2022-10-31T04:50:48;101826.09;;;8.64;100.00
54262;BME280;40174;52.364;6.452;2022-10-31T04:53:14;101835.88;;;8.62;100.00
54262;BME280;40174;52.364;6.452;2022-10-31T04:56:01;101835.19;;;8.58;100.00
54262;BME280;40174;52.364;6.452;2022-10-31T04:58:36;101835.28;;;8.57;100.00
54262;BME280;40174;52.364;6.452;2022-10-31T05:01:07;101839.94;;;8.51;100.00
54262;BME280;40174;52.364;6.452;2022-10-31T05:03:33;101841.03;;;8.47;100.00
54262;BME280;40174;52.364;6.452;2022-10-31T05:06:02;101843.00;;;8.44;100.00
54262;BME280;40174;52.364;6.452;2022-10-31T05:08:28;101834.25;;;8.43;100.00
54262;BME280;40174;52.364;6.452;2022-10-31T05:10:59;101835.34;;;8.39;100.00
54262;BME280;40174;52.364;6.452;2022-10-31T05:13:26;101825.88;;;8.35;100.00
54262;BME280;40174;52.364;6.452;2022-10-31T05:16:12;101827.06;;;8.29;100.00
54262;BME280;40174;52.364;6.452;2022-10-31T05:19:14;101819.25;;;8.28;100.00
54262;BME280;40174;52.364;6.452;2022-10-31T05:22:14;101804.47;;;8.25;100.00
54262;BME280;40174;52.364;6.452;2022-10-31T05:24:42;101811.63;;;8.23;100.00
54262;BME280;40174;52.364;6.452;2022-10-31T05:27:09;101812.63;;;8.21;100.00
54262;BME280;40174;52.364;6.452;2022-10-31T05:29:36;101800.38;;;8.20;100.00
54262;BME280;40174;52.364;6.452;2022-10-31T05:32:02;101806.69;;;8.17;100.00
54262;BME280;40174;52.364;6.452;2022-10-31T05:35:11;101798.19;;;8.12;100.00
54262;BME280;40174;52.364;6.452;2022-10-31T05:38:05;101807.94;;;8.10;100.00
54262;BME280;40174;52.364;6.452;2022-10-31T05:40:32;101802.00;;;8.06;100.00
54262;BME280;40174;52.364;6.452;2022-10-31T05:42:59;101812.44;;;8.08;100.00
54262;BME280;40174;52.364;6.452;2022-10-31T05:45:25;101801.91;;;8.08;100.00
54262;BME280;40174;52.364;6.452;2022-10-31T05:47:58;101810.66;;;8.08;100.00
54262;BME280;40174;52.364;6.452;2022-10-31T05:51:03;101811.59;;;8.07;100.00
54262;BME280;40174;52.364;6.452;2022-10-31T05:53:31;101810.72;;;8.07;100.00
54262;BME280;40174;52.364;6.452;2022-10-31T05:55:58;101798.50;;;8.06;100.00
54262;BME280;40174;52.364;6.452;2022-10-31T05:58:25;101804.03;;;8.01;100.00
54262;BME280;40174;52.364;6.452;2022-10-31T06:00:59;101805.06;;;7.99;100.00
54262;BME280;40174;52.364;6.452;2022-10-31T06:03:26;101802.25;;;8.02;100.00
54262;BME280;40174;52.364;6.452;2022-10-31T06:05:55;101797.81;;;8.02;100.00
54262;BME280;40174;52.364;6.452;2022-10-31T06:08:25;101797.66;;;8.05;100.00
54262;BME280;40174;52.364;6.452;2022-10-31T06:10:55;101795.94;;;8.04;100.00
54262;BME280;40174;52.364;6.452;2022-10-31T06:13:42;101798.69;;;8.03;100.00
54262;BME280;40174;52.364;6.452;2022-10-31T06:16:23;101794.94;;;8.07;100.00
54262;BME280;40174;52.364;6.452;2022-10-31T06:18:53;101801.06;;;8.07;100.00
54262;BME280;40174;52.364;6.452;2022-10-31T06:21:20;101807.94;;;8.10;100.00
54262;BME280;40174;52.364;6.452;2022-10-31T06:23:49;101804.38;;;8.11;100.00
54262;BME280;40174;52.364;6.452;2022-10-31T06:26:52;101817.38;;;8.14;100.00
54262;BME280;40174;52.364;6.452;2022-10-31T06:29:20;101814.59;;;8.17;100.00
54262;BME280;40174;52.364;6.452;2022-10-31T06:32:10;101815.53;;;8.16;100.00
54262;BME280;40174;52.364;6.452;2022-10-31T06:34:41;101809.38;;;8.16;100.00
54262;BME280;40174;52.364;6.452;2022-10-31T06:37:09;101803.97;;;8.19;100.00
54262;BME280;40174;52.364;6.452;2022-10-31T06:39:38;101801.22;;;8.20;100.00
54262;BME280;40174;52.364;6.452;2022-10-31T06:42:06;101805.66;;;8.20;100.00
54262;BME280;40174;52.364;6.452;2022-10-31T06:44:34;101807.44;;;8.19;100.00
54262;BME280;40174;52.364;6.452;2022-10-31T06:47:19;101814.31;;;8.22;100.00
54262;BME280;40174;52.364;6.452;2022-10-31T06:49:56;101809.06;;;8.22;100.00
54262;BME280;40174;52.364;6.452;2022-10-31T06:52:24;101815.94;;;8.24;100.00
54262;BME280;40174;52.364;6.452;2022-10-31T06:54:51;101819.41;;;8.25;100.00
54262;BME280;40174;52.364;6.452;2022-10-31T06:57:20;101817.66;;;8.25;100.00
54262;BME280;40174;52.364;6.452;2022-10-31T06:59:46;101823.00;;;8.24;100.00
54262;BME280;40174;52.364;6.452;2022-10-31T07:02:17;101827.41;;;8.23;100.00
54262;BME280;40174;52.364;6.452;2022-10-31T07:04:43;101830.06;;;8.23;100.00
54262;BME280;40174;52.364;6.452;2022-10-31T07:07:13;101830.06;;;8.23;100.00
54262;BME280;40174;52.364;6.452;2022-10-31T07:09:39;101835.91;;;8.28;100.00
54262;BME280;40174;52.364;6.452;2022-10-31T07:12:08;101828.72;;;8.32;100.00
54262;BME280;40174;52.364;6.452;2022-10-31T07:14:40;101842.53;;;8.36;100.00
54262;BME280;40174;52.364;6.452;2022-10-31T07:17:06;101835.41;;;8.38;100.00
54262;BME280;40174;52.364;6.452;2022-10-31T07:19:37;101840.53;;;8.41;100.00
54262;BME280;40174;52.364;6.452;2022-10-31T07:22:04;101828.88;;;8.45;100.00
54262;BME280;40174;52.364;6.452;2022-10-31T07:24:32;101834.09;;;8.46;100.00
54262;BME280;40174;52.364;6.452;2022-10-31T07:27:21;101825.91;;;8.51;100.00
54262;BME280;40174;52.364;6.452;2022-10-31T07:29:49;101832.91;;;8.52;100.00
54262;BME280;40174;52.364;6.452;2022-10-31T07:32:16;101837.91;;;8.57;100.00
54262;BME280;40174;52.364;6.452;2022-10-31T07:34:50;101832.38;;;8.61;100.00
54262;BME280;40174;52.364;6.452;2022-10-31T07:37:22;101835.69;;;8.65;100.00
54262;BME280;40174;52.364;6.452;2022-10-31T07:39:48;101831.09;;;8.68;100.00
54262;BME280;40174;52.364;6.452;2022-10-31T07:42:15;101834.31;;;8.73;100.00
54262;BME280;40174;52.364;6.452;2022-10-31T07:44:44;101839.41;;;8.77;100.00
54262;BME280;40174;52.364;6.452;2022-10-31T07:47:38;101837.38;;;8.82;100.00
54262;BME280;40174;52.364;6.452;2022-10-31T07:50:25;101834.56;;;8.85;100.00
54262;BME280;40174;52.364;6.452;2022-10-31T07:52:59;101830.81;;;8.89;100.00
54262;BME280;40174;52.364;6.452;2022-10-31T07:56:05;101826.22;;;8.92;100.00
54262;BME280;40174;52.364;6.452;2022-10-31T07:58:32;101829.44;;;8.98;100.00
54262;BME280;40174;52.364;6.452;2022-10-31T08:00:59;101830.84;;;9.03;100.00
54262;BME280;40174;52.364;6.452;2022-10-31T08:03:36;101836.81;;;9.07;100.00
54262;BME280;40174;52.364;6.452;2022-10-31T08:06:09;101827.78;;;9.11;100.00
54262;BME280;40174;52.364;6.452;2022-10-31T08:08:41;101836.28;;;9.16;100.00
54262;BME280;40174;52.364;6.452;2022-10-31T08:11:09;101828.19;;;9.19;100.00
54262;BME280;40174;52.364;6.452;2022-10-31T08:13:36;101830.56;;;9.24;100.00
54262;BME280;40174;52.364;6.452;2022-10-31T08:16:04;101823.31;;;9.27;100.00
54262;BME280;40174;52.364;6.452;2022-10-31T08:18:37;101826.53;;;9.32;100.00
54262;BME280;40174;52.364;6.452;2022-10-31T08:21:05;101827.13;;;9.38;100.00
54262;BME280;40174;52.364;6.452;2022-10-31T08:23:31;101830.13;;;9.46;100.00
54262;BME280;40174;52.364;6.452;2022-10-31T08:25:58;101826.28;;;9.51;100.00
54262;BME280;40174;52.364;6.452;2022-10-31T08:28:25;101822.41;;;9.57;100.00
54262;BME280;40174;52.364;6.452;2022-10-31T08:30:53;101829.97;;;9.63;100.00
54262;BME280;40174;52.364;6.452;2022-10-31T08:33:53;101827.72;;;9.71;100.00
54262;BME280;40174;52.364;6.452;2022-10-31T08:36:55;101828.19;;;9.78;100.00
54262;BME280;40174;52.364;6.452;2022-10-31T08:39:32;101835.72;;;9.84;100.00
54262;BME280;40174;52.364;6.452;2022-10-31T08:41:59;101838.84;;;9.91;100.00
54262;BME280;40174;52.364;6.452;2022-10-31T08:44:26;101834.91;;;9.98;100.00
54262;BME280;40174;52.364;6.452;2022-10-31T08:46:53;101830.84;;;10.07;100.00
54262;BME280;40174;52.364;6.452;2022-10-31T08:49:22;101832.16;;;10.14;100.00
54262;BME280;40174;52.364;6.452;2022-10-31T08:51:49;101835.81;;;10.26;100.00
54262;BME280;40174;52.364;6.452;2022-10-31T08:54:19;101831.56;;;10.37;100.00
54262;BME280;40174;52.364;6.452;2022-10-31T08:56:55;101832.59;;;10.49;100.00
54262;BME280;40174;52.364;6.452;2022-10-31T08:59:50;101828.19;;;10.63;100.00
54262;BME280;40174;52.364;6.452;2022-10-31T09:02:36;101827.50;;;10.73;100.00
54262;BME280;40174;52.364;6.452;2022-10-31T09:05:06;101830.81;;;10.77;100.00
54262;BME280;40174;52.364;6.452;2022-10-31T09:07:33;101821.53;;;10.84;100.00
54262;BME280;40174;52.364;6.452;2022-10-31T09:09:59;101820.16;;;10.91;100.00
54262;BME280;40174;52.364;6.452;2022-10-31T09:12:30;101821.44;;;10.98;100.00
54262;BME280;40174;52.364;6.452;2022-10-31T09:15:16;101820.22;;;11.04;100.00
54262;BME280;40174;52.364;6.452;2022-10-31T09:17:46;101814.22;;;11.15;100.00
54262;BME280;40174;52.364;6.452;2022-10-31T09:20:22;101817.06;;;11.24;100.00
54262;BME280;40174;52.364;6.452;2022-10-31T09:22:55;101814.53;;;11.36;100.00
54262;BME280;40174;52.364;6.452;2022-10-31T09:25:22;101820.19;;;11.44;100.00
54262;BME280;40174;52.364;6.452;2022-10-31T09:28:02;101814.47;;;11.50;100.00
54262;BME280;40174;52.364;6.452;2022-10-31T09:30:32;101809.16;;;11.63;100.00
54262;BME280;40174;52.364;6.452;2022-10-31T09:32:59;101806.72;;;11.73;100.00
54262;BME280;40174;52.364;6.452;2022-10-31T09:35:28;101820.06;;;11.84;100.00
54262;BME280;40174;52.364;6.452;2022-10-31T09:37:57;101811.59;;;11.92;100.00
54262;BME280;40174;52.364;6.452;2022-10-31T09:40:27;101815.31;;;12.02;100.00
54262;BME280;40174;52.364;6.452;2022-10-31T09:43:03;101818.47;;;12.20;100.00
54262;BME280;40174;52.364;6.452;2022-10-31T09:45:33;101817.22;;;12.37;100.00
54262;BME280;40174;52.364;6.452;2022-10-31T09:48:26;101814.84;;;12.58;100.00
54262;BME280;40174;52.364;6.452;2022-10-31T09:51:11;101803.09;;;12.73;100.00
54262;BME280;40174;52.364;6.452;2022-10-31T09:53:51;101800.41;;;12.97;100.00
54262;BME280;40174;52.364;6.452;2022-10-31T09:56:22;101806.94;;;13.04;100.00
54262;BME280;40174;52.364;6.452;2022-10-31T09:58:52;101798.44;;;13.12;100.00
54262;BME280;40174;52.364;6.452;2022-10-31T10:01:30;101792.16;;;13.24;100.00
54262;BME280;40174;52.364;6.452;2022-10-31T10:04:03;101791.75;;;13.42;100.00
54262;BME280;40174;52.364;6.452;2022-10-31T10:06:56;101798.28;;;13.49;100.00
54262;BME280;40174;52.364;6.452;2022-10-31T10:09:51;101792.63;;;13.65;100.00
54262;BME280;40174;52.364;6.452;2022-10-31T10:13:04;101797.09;;;13.76;100.00
54262;BME280;40174;52.364;6.452;2022-10-31T10:15:45;101800.13;;;13.93;100.00
54262;BME280;40174;52.364;6.452;2022-10-31T10:18:23;101795.91;;;14.02;100.00
54262;BME280;40174;52.364;6.452;2022-10-31T10:21:03;101793.34;;;14.12;100.00
54262;BME280;40174;52.364;6.452;2022-10-31T10:23:51;101779.78;;;14.26;100.00
54262;BME280;40174;52.364;6.452;2022-10-31T10:26:23;101753.94;;;14.28;100.00
54262;BME280;40174;52.364;6.452;2022-10-31T10:28:57;101739.28;;;14.34;100.00
54262;BME280;40174;52.364;6.452;2022-10-31T10:31:27;101743.09;;;14.41;100.00
54262;BME280;40174;52.364;6.452;2022-10-31T10:34:01;101767.19;;;14.40;100.00
54262;BME280;40174;52.364;6.452;2022-10-31T10:36:32;101765.44;;;14.50;100.00
54262;BME280;40174;52.364;6.452;2022-10-31T10:39:07;101762.78;;;14.50;100.00
54262;BME280;40174;52.364;6.452;2022-10-31T10:41:35;101756.19;;;14.44;100.00
54262;BME280;40174;52.364;6.452;2022-10-31T10:44:07;101740.06;;;14.46;100.00
54262;BME280;40174;52.364;6.452;2022-10-31T10:46:49;101749.38;;;14.51;100.00
54262;BME280;40174;52.364;6.452;2022-10-31T10:49:40;101743.22;;;14.51;100.00
54262;BME280;40174;52.364;6.452;2022-10-31T10:52:14;101742.16;;;14.42;100.00
54262;BME280;40174;52.364;6.452;2022-10-31T10:55:01;101745.66;;;14.43;100.00
54262;BME280;40174;52.364;6.452;2022-10-31T10:57:41;101746.75;;;14.40;100.00
54262;BME280;40174;52.364;6.452;2022-10-31T11:00:18;101741.78;;;14.47;100.00
54262;BME280;40174;52.364;6.452;2022-10-31T11:02:47;101752.53;;;14.45;100.00
54262;BME280;40174;52.364;6.452;2022-10-31T11:05:20;101739.69;;;14.50;100.00
54262;BME280;40174;52.364;6.452;2022-10-31T11:07:48;101732.97;;;14.46;100.00
54262;BME280;40174;52.364;6.452;2022-10-31T11:10:17;101722.78;;;14.51;100.00
54262;BME280;40174;52.364;6.452;2022-10-31T11:12:46;101725.19;;;14.54;100.00
54262;BME280;40174;52.364;6.452;2022-10-31T11:15:25;101717.69;;;14.60;100.00
54262;BME280;40174;52.364;6.452;2022-10-31T11:17:54;101710.56;;;14.60;100.00
54262;BME280;40174;52.364;6.452;2022-10-31T11:20:28;101707.25;;;14.68;100.00
54262;BME280;40174;52.364;6.452;2022-10-31T11:23:02;101711.06;;;14.75;100.00
54262;BME280;40174;52.364;6.452;2022-10-31T11:25:31;101704.06;;;14.74;100.00
54262;BME280;40174;52.364;6.452;2022-10-31T11:28:02;101704.78;;;14.76;100.00
54262;BME280;40174;52.364;6.452;2022-10-31T11:30:29;101701.41;;;14.74;100.00
54262;BME280;40174;52.364;6.452;2022-10-31T11:32:57;101689.53;;;14.78;100.00
54262;BME280;40174;52.364;6.452;2022-10-31T11:35:25;101683.13;;;14.81;100.00
54262;BME280;40174;52.364;6.452;2022-10-31T11:37:53;101686.50;;;14.83;100.00
54262;BME280;40174;52.364;6.452;2022-10-31T11:40:22;101679.94;;;14.87;100.00
54262;BME280;40174;52.364;6.452;2022-10-31T11:42:52;101673.00;;;14.95;100.00
54262;BME280;40174;52.364;6.452;2022-10-31T11:45:28;101643.03;;;15.03;100.00
54262;BME280;40174;52.364;6.452;2022-10-31T11:47:56;101643.63;;;15.07;100.00
54262;BME280;40174;52.364;6.452;2022-10-31T11:50:25;101639.31;;;15.15;100.00
54262;BME280;40174;52.364;6.452;2022-10-31T11:52:53;101637.53;;;15.26;100.00
54262;BME280;40174;52.364;6.452;2022-10-31T11:55:31;101628.84;;;15.33;100.00
54262;BME280;40174;52.364;6.452;2022-10-31T11:57:59;101629.56;;;15.35;100.00
54262;BME280;40174;52.364;6.452;2022-10-31T12:00:28;101623.00;;;15.39;100.00
54262;BME280;40174;52.364;6.452;2022-10-31T12:03:10;101619.81;;;15.46;100.00
54262;BME280;40174;52.364;6.452;2022-10-31T12:05:38;101609.75;;;15.59;100.00
54262;BME280;40174;52.364;6.452;2022-10-31T12:08:07;101598.59;;;15.75;100.00
54262;BME280;40174;52.364;6.452;2022-10-31T12:10:42;101599.56;;;15.93;100.00
54262;BME280;40174;52.364;6.452;2022-10-31T12:13:31;101589.47;;;16.16;100.00
54262;BME280;40174;52.364;6.452;2022-10-31T12:16:04;101588.22;;;16.30;100.00
54262;BME280;40174;52.364;6.452;2022-10-31T12:18:53;101579.47;;;16.38;100.00
54262;BME280;40174;52.364;6.452;2022-10-31T12:21:53;101570.25;;;16.32;100.00
54262;BME280;40174;52.364;6.452;2022-10-31T12:24:45;101568.00;;;16.18;100.00
54262;BME280;40174;52.364;6.452;2022-10-31T12:27:25;101576.00;;;16.08;100.00
54262;BME280;40174;52.364;6.452;2022-10-31T12:30:08;101559.59;;;16.03;100.00
54262;BME280;40174;52.364;6.452;2022-10-31T12:32:42;101553.69;;;15.99;100.00
54262;BME280;40174;52.364;6.452;2022-10-31T12:35:26;101545.13;;;15.96;100.00
54262;BME280;40174;52.364;6.452;2022-10-31T12:38:12;101543.16;;;15.98;100.00
54262;BME280;40174;52.364;6.452;2022-10-31T12:40:51;101538.94;;;16.05;100.00
54262;BME280;40174;52.364;6.452;2022-10-31T12:43:32;101535.56;;;16.23;100.00
54262;BME280;40174;52.364;6.452;2022-10-31T12:46:03;101543.97;;;16.28;100.00
54262;BME280;40174;52.364;6.452;2022-10-31T12:49:01;101539.63;;;16.27;100.00
54262;BME280;40174;52.364;6.452;2022-10-31T12:51:40;101524.06;;;16.22;100.00
54262;BME280;40174;52.364;6.452;2022-10-31T12:54:27;101512.69;;;16.20;100.00
54262;BME280;40174;52.364;6.452;2022-10-31T12:57:03;101510.16;;;16.18;100.00
54262;BME280;40174;52.364;6.452;2022-10-31T12:59:35;101503.28;;;16.16;100.00
54262;BME280;40174;52.364;6.452;2022-10-31T13:02:13;101501.88;;;16.12;100.00
54262;BME280;40174;52.364;6.452;2022-10-31T13:04:46;101499.22;;;16.12;100.00
54262;BME280;40174;52.364;6.452;2022-10-31T13:07:16;101502.47;;;16.06;100.00
54262;BME280;40174;52.364;6.452;2022-10-31T13:09:49;101499.81;;;16.06;100.00
54262;BME280;40174;52.364;6.452;2022-10-31T13:12:20;101500.66;;;16.06;100.00
54262;BME280;40174;52.364;6.452;2022-10-31T13:14:51;101487.44;;;16.05;100.00
54262;BME280;40174;52.364;6.452;2022-10-31T13:17:28;101478.47;;;16.06;100.00
54262;BME280;40174;52.364;6.452;2022-10-31T13:20:08;101458.41;;;16.02;100.00
54262;BME280;40174;52.364;6.452;2022-10-31T13:22:39;101464.59;;;16.02;100.00
54262;BME280;40174;52.364;6.452;2022-10-31T13:25:11;101462.34;;;15.97;100.00
54262;BME280;40174;52.364;6.452;2022-10-31T13:27:45;101456.31;;;15.95;100.00
54262;BME280;40174;52.364;6.452;2022-10-31T13:30:15;101452.00;;;15.94;100.00
54262;BME280;40174;52.364;6.452;2022-10-31T13:32:47;101448.31;;;15.95;100.00
54262;BME280;40174;52.364;6.452;2022-10-31T13:35:21;101443.69;;;15.97;100.00
54262;BME280;40174;52.364;6.452;2022-10-31T13:37:57;101431.34;;;15.96;100.00
54262;BME280;40174;52.364;6.452;2022-10-31T13:40:35;101430.38;;;15.97;100.00
54262;BME280;40174;52.364;6.452;2022-10-31T13:43:05;101424.31;;;15.95;100.00
54262;BME280;40174;52.364;6.452;2022-10-31T13:45:33;101424.06;;;15.89;100.00
54262;BME280;40174;52.364;6.452;2022-10-31T13:48:18;101416.06;;;15.89;100.00
54262;BME280;40174;52.364;6.452;2022-10-31T13:50:56;101405.41;;;15.89;100.00
54262;BME280;40174;52.364;6.452;2022-10-31T13:53:35;101407.94;;;15.90;100.00
54262;BME280;40174;52.364;6.452;2022-10-31T13:56:04;101396.72;;;15.87;100.00
54262;BME280;40174;52.364;6.452;2022-10-31T13:58:37;101396.00;;;15.85;100.00
54262;BME280;40174;52.364;6.452;2022-10-31T14:01:13;101385.34;;;15.85;100.00
54262;BME280;40174;52.364;6.452;2022-10-31T14:03:45;101382.25;;;15.89;100.00